createdAt,value
2022-12-18T00:01:27.549Z,66.50
2022-12-18T00:03:57.514Z,63.90
2022-12-18T00:06:27.932Z,57.50
2022-12-18T00:08:58.883Z,55.30
2022-12-18T00:11:30.218Z,54.50
2022-12-18T00:14:00.939Z,59.10
2022-12-18T00:16:31.278Z,63.70
2022-12-18T00:19:00.913Z,66.30
2022-12-18T00:21:30.678Z,67.80
2022-12-18T00:24:00.342Z,61.20
2022-12-18T00:26:31.247Z,57.30
2022-12-18T00:29:05.319Z,55.80
2022-12-18T00:31:34.611Z,60.20
2022-12-18T00:34:03.766Z,65.20
2022-12-18T00:36:35.667Z,67.50
2022-12-18T00:39:06.292Z,69.60
2022-12-18T00:41:34.999Z,61.90
2022-12-18T00:44:04.654Z,58.00
2022-12-18T00:46:33.628Z,56.80
2022-12-18T00:49:01.906Z,55.80
2022-12-18T00:51:30.261Z,62.70
2022-12-18T00:53:58.672Z,66.60
2022-12-18T00:56:26.987Z,68.70
2022-12-18T00:58:55.627Z,69.90
2022-12-18T01:01:24.316Z,62.70
2022-12-18T01:03:52.718Z,59.10
2022-12-18T01:06:21.913Z,57.20
2022-12-18T01:08:52.327Z,56.60
2022-12-18T01:11:22.632Z,64.20
2022-12-18T01:13:51.212Z,67.20
2022-12-18T01:16:19.749Z,69.40
2022-12-18T01:18:48.453Z,70.30
2022-12-18T01:21:18.170Z,61.90
2022-12-18T01:23:46.696Z,58.90
2022-12-18T01:26:18.733Z,57.30
2022-12-18T01:28:46.927Z,57.90
2022-12-18T01:31:24.076Z,64.70
2022-12-18T01:33:53.501Z,67.30
2022-12-18T01:36:27.359Z,69.80
2022-12-18T01:38:56.856Z,67.70
2022-12-18T01:41:31.724Z,60.80
2022-12-18T01:44:00.462Z,58.40
2022-12-18T01:46:29.240Z,57.80
2022-12-18T01:49:02.997Z,64.90
2022-12-18T01:51:32.330Z,68.30
2022-12-18T01:54:01.535Z,70.30
2022-12-18T01:56:29.899Z,66.20
2022-12-18T01:59:06.230Z,60.80
2022-12-18T02:01:35.094Z,58.80
2022-12-18T02:04:20.757Z,62.20
2022-12-18T02:06:57.095Z,66.80
2022-12-18T02:09:45.645Z,69.60
2022-12-18T02:12:21.296Z,71.30
2022-12-18T02:14:58.389Z,64.70
2022-12-18T02:17:40.044Z,60.70
2022-12-18T02:20:36.768Z,59.80
2022-12-18T02:23:46.092Z,67.50
2022-12-18T02:26:17.314Z,71.00
2022-12-18T02:29:06.719Z,72.50
2022-12-18T02:31:57.945Z,65.10
2022-12-18T02:34:38.286Z,61.20
2022-12-18T02:37:12.656Z,59.80
2022-12-18T02:39:44.569Z,67.10
2022-12-18T02:42:15.394Z,70.30
2022-12-18T02:44:51.746Z,72.50
2022-12-18T02:47:32.371Z,73.30
2022-12-18T02:50:13.081Z,64.70
2022-12-18T02:53:23.873Z,61.50
2022-12-18T02:55:58.012Z,61.70
2022-12-18T02:58:54.845Z,68.70
2022-12-18T03:01:50.488Z,71.60
2022-12-18T03:04:20.647Z,73.60
2022-12-18T03:06:54.967Z,66.50
2022-12-18T03:09:29.567Z,61.90
2022-12-18T03:12:05.329Z,60.30
2022-12-18T03:14:38.983Z,66.50
2022-12-18T03:17:15.276Z,69.70
2022-12-18T03:19:45.743Z,72.30
2022-12-18T03:22:15.055Z,73.60
2022-12-18T03:24:51.394Z,66.50
2022-12-18T03:27:25.572Z,61.90
2022-12-18T03:30:07.764Z,60.40
2022-12-18T03:33:09.620Z,67.00
2022-12-18T03:35:44.245Z,70.20
2022-12-18T03:38:14.649Z,73.40
2022-12-18T03:41:02.235Z,71.50
2022-12-18T03:43:45.510Z,63.60
2022-12-18T03:46:48.489Z,60.70
2022-12-18T03:49:26.859Z,66.80
2022-12-18T03:52:11.674Z,70.40
2022-12-18T03:54:44.590Z,73.00
2022-12-18T03:57:21.156Z,74.50
2022-12-18T03:59:57.865Z,66.40
2022-12-18T04:02:33.486Z,62.30
2022-12-18T04:05:06.114Z,60.70
2022-12-18T04:07:36.340Z,68.20
2022-12-18T04:10:08.526Z,71.40
2022-12-18T04:12:40.421Z,73.40
2022-12-18T04:15:14.188Z,69.90
2022-12-18T04:17:50.570Z,63.30
2022-12-18T04:20:22.395Z,60.90
2022-12-18T04:22:50.869Z,66.00
2022-12-18T04:25:21.103Z,70.00
2022-12-18T04:28:03.427Z,72.30
2022-12-18T04:30:32.057Z,74.00
2022-12-18T04:33:00.785Z,65.90
2022-12-18T04:35:31.326Z,62.10
2022-12-18T04:38:00.770Z,60.60
2022-12-18T04:40:28.990Z,68.30
2022-12-18T04:42:57.443Z,71.30
2022-12-18T04:45:25.700Z,73.00
2022-12-18T04:47:53.924Z,74.70
2022-12-18T04:50:22.136Z,65.90
2022-12-18T04:52:50.406Z,62.40
2022-12-18T04:55:18.730Z,63.10
2022-12-18T04:57:46.941Z,69.40
2022-12-18T05:00:15.652Z,72.20
2022-12-18T05:02:44.215Z,73.70
2022-12-18T05:05:12.273Z,75.50
2022-12-18T05:07:40.539Z,68.80
2022-12-18T05:10:10.522Z,63.50
2022-12-18T05:12:39.168Z,61.90
2022-12-18T05:15:07.966Z,68.20
2022-12-18T05:17:36.331Z,71.40
2022-12-18T05:20:04.900Z,73.50
2022-12-18T05:22:33.230Z,75.30
2022-12-18T05:25:01.602Z,76.00
2022-12-18T05:27:29.890Z,67.90
2022-12-18T05:29:58.219Z,64.00
2022-12-18T05:32:26.777Z,62.40
2022-12-18T05:34:54.989Z,69.10
2022-12-18T05:37:23.395Z,72.40
2022-12-18T05:39:51.935Z,74.20
2022-12-18T05:42:20.251Z,76.20
2022-12-18T05:44:48.523Z,72.80
2022-12-18T05:47:16.858Z,65.70
2022-12-18T05:49:45.269Z,63.10
2022-12-18T05:52:13.607Z,68.50
2022-12-18T05:54:41.966Z,72.20
2022-12-18T05:57:10.177Z,74.60
2022-12-18T05:59:38.779Z,76.20
2022-12-18T06:02:07.249Z,73.90
2022-12-18T06:04:35.863Z,66.20
2022-12-18T06:07:04.132Z,63.00
2022-12-18T06:09:32.412Z,67.40
2022-12-18T06:12:00.852Z,71.60
2022-12-18T06:14:29.256Z,74.00
2022-12-18T06:16:57.401Z,75.90
2022-12-18T06:19:25.909Z,73.80
2022-12-18T06:21:54.143Z,65.90
2022-12-18T06:24:22.411Z,63.00
2022-12-18T06:26:50.606Z,67.90
2022-12-18T06:29:18.974Z,71.50
2022-12-18T06:31:47.300Z,74.40
2022-12-18T06:34:16.049Z,76.20
2022-12-18T06:36:44.065Z,77.10
2022-12-18T06:39:12.469Z,73.60
2022-12-18T06:41:40.855Z,66.20
2022-12-18T06:44:09.170Z,64.60
2022-12-18T06:46:39.350Z,70.90
2022-12-18T06:49:07.929Z,73.70
2022-12-18T06:51:36.465Z,76.70
2022-12-18T06:54:05.077Z,77.80
2022-12-18T06:56:33.358Z,70.00
2022-12-18T06:59:02.268Z,65.20
2022-12-18T07:01:30.954Z,65.70
2022-12-18T07:03:59.860Z,71.50
2022-12-18T07:06:28.535Z,74.20
2022-12-18T07:08:57.174Z,76.90
2022-12-18T07:11:26.262Z,77.80
2022-12-18T07:13:54.699Z,72.60
2022-12-18T07:16:25.628Z,68.70
2022-12-18T07:18:56.631Z,66.10
2022-12-18T07:21:25.913Z,72.30
2022-12-18T07:23:54.303Z,76.30
2022-12-18T07:26:23.760Z,78.60
2022-12-18T07:28:52.585Z,78.60
2022-12-18T07:31:24.144Z,69.70
2022-12-18T07:33:53.356Z,66.10
2022-12-18T07:36:22.111Z,69.10
2022-12-18T07:38:50.541Z,73.50
2022-12-18T07:41:19.437Z,75.40
2022-12-18T07:43:48.681Z,77.10
2022-12-18T07:46:18.044Z,78.40
2022-12-18T07:48:50.189Z,73.50
2022-12-18T07:51:19.929Z,66.90
2022-12-18T07:53:52.013Z,65.50
2022-12-18T07:56:30.834Z,72.40
2022-12-18T07:59:00.784Z,75.10
2022-12-18T08:01:32.426Z,77.00
2022-12-18T08:04:00.716Z,77.90
2022-12-18T08:06:29.047Z,68.70
2022-12-18T08:08:58.198Z,65.20
2022-12-18T08:11:28.580Z,68.30
2022-12-18T08:13:57.811Z,72.60
2022-12-18T08:16:26.328Z,75.20
2022-12-18T08:18:55.774Z,76.70
2022-12-18T08:21:28.123Z,77.90
2022-12-18T08:23:58.503Z,70.60
2022-12-18T08:26:29.813Z,65.30
2022-12-18T08:29:00.893Z,65.30
2022-12-18T08:31:31.186Z,72.10
2022-12-18T08:34:00.230Z,74.60
2022-12-18T08:36:28.669Z,76.30
2022-12-18T08:38:58.379Z,77.90
2022-12-18T08:41:27.370Z,71.20
2022-12-18T08:43:55.716Z,65.80
2022-12-18T08:46:26.367Z,66.40
2022-12-18T08:48:55.458Z,72.20
2022-12-18T08:51:23.801Z,75.10
2022-12-18T08:53:52.302Z,76.80
2022-12-18T08:56:20.631Z,78.10
2022-12-18T08:58:48.905Z,73.00
2022-12-18T09:01:17.906Z,66.80
2022-12-18T09:03:46.284Z,64.50
2022-12-18T09:06:19.178Z,70.70
2022-12-18T09:08:47.765Z,73.70
2022-12-18T09:11:26.167Z,76.00
2022-12-18T09:13:55.500Z,77.50
2022-12-18T09:16:31.692Z,72.30
2022-12-18T09:19:01.968Z,67.00
2022-12-18T09:21:37.208Z,64.40
2022-12-18T09:24:08.728Z,71.60
2022-12-18T09:26:38.203Z,74.70
2022-12-18T09:29:07.904Z,76.60
2022-12-18T09:31:36.598Z,78.00
2022-12-18T09:34:04.578Z,71.00
2022-12-18T09:36:32.921Z,66.10
2022-12-18T09:39:05.131Z,64.20
2022-12-18T09:41:39.412Z,71.10
2022-12-18T09:44:29.956Z,74.40
2022-12-18T09:47:19.583Z,76.30
2022-12-18T09:49:51.176Z,77.80
2022-12-18T09:52:32.328Z,70.50
2022-12-18T09:55:09.931Z,66.10
2022-12-18T09:57:46.758Z,67.00
2022-12-18T10:00:33.264Z,72.80
2022-12-18T10:03:10.602Z,75.40
2022-12-18T10:06:08.541Z,77.40
2022-12-18T10:08:40.226Z,73.40
2022-12-18T10:11:24.115Z,66.90
2022-12-18T10:14:00.759Z,64.10
2022-12-18T10:17:05.304Z,71.00
2022-12-18T10:20:01.457Z,74.70
2022-12-18T10:22:46.128Z,76.80
2022-12-18T10:25:25.239Z,73.50
2022-12-18T10:27:58.780Z,67.10
2022-12-18T10:30:28.285Z,64.40
2022-12-18T10:33:02.001Z,70.10
2022-12-18T10:35:31.656Z,73.40
2022-12-18T10:38:04.775Z,75.90
2022-12-18T10:40:34.167Z,77.30
2022-12-18T10:43:38.937Z,78.30
2022-12-18T10:46:10.407Z,68.70
2022-12-18T10:48:48.908Z,65.60
2022-12-18T10:51:25.265Z,65.40
2022-12-18T10:54:16.509Z,72.00
2022-12-18T10:56:46.978Z,74.90
2022-12-18T10:59:16.155Z,77.00
2022-12-18T11:01:56.835Z,77.90
2022-12-18T11:04:27.790Z,69.90
2022-12-18T11:07:05.257Z,66.20
2022-12-18T11:09:36.480Z,64.10
2022-12-18T11:12:25.046Z,69.70
2022-12-18T11:14:55.127Z,73.50
2022-12-18T11:17:36.945Z,75.50
2022-12-18T11:20:29.775Z,77.20
2022-12-18T11:23:01.509Z,69.90
2022-12-18T11:25:34.697Z,65.40
2022-12-18T11:28:27.444Z,64.00
2022-12-18T11:31:34.532Z,70.30
2022-12-18T11:34:29.269Z,74.40
2022-12-18T11:37:01.716Z,76.10
2022-12-18T11:39:53.234Z,77.80
2022-12-18T11:42:56.746Z,69.70
2022-12-18T11:45:37.615Z,65.10
2022-12-18T11:48:15.369Z,63.40
2022-12-18T11:51:04.369Z,68.90
2022-12-18T11:53:32.863Z,72.80
2022-12-18T11:56:32.005Z,74.80
2022-12-18T11:59:09.752Z,76.60
2022-12-18T12:01:47.711Z,70.70
2022-12-18T12:04:37.694Z,65.60
2022-12-18T12:07:16.514Z,63.70
2022-12-18T12:10:05.223Z,69.60
2022-12-18T12:13:07.106Z,73.10
2022-12-18T12:15:55.442Z,76.20
2022-12-18T12:18:47.456Z,75.90
2022-12-18T12:21:40.063Z,67.50
2022-12-18T12:24:23.728Z,64.80
2022-12-18T12:27:10.853Z,62.80
2022-12-18T12:30:20.302Z,69.70
2022-12-18T12:32:55.547Z,73.70
2022-12-18T12:35:53.617Z,75.80
2022-12-18T12:38:24.891Z,76.40
2022-12-18T12:41:04.917Z,67.80
2022-12-18T12:43:50.795Z,64.80
2022-12-18T12:46:23.931Z,63.20
2022-12-18T12:48:57.130Z,69.60
2022-12-18T12:51:36.360Z,73.20
2022-12-18T12:54:15.420Z,75.10
2022-12-18T12:56:51.786Z,76.60
2022-12-18T12:59:43.766Z,68.00
2022-12-18T13:02:21.411Z,64.80
2022-12-18T13:05:21.300Z,63.20
2022-12-18T13:07:53.194Z,70.00
2022-12-18T13:10:33.090Z,73.50
2022-12-18T13:13:12.822Z,76.10
2022-12-18T13:15:42.617Z,70.20
2022-12-18T13:18:11.481Z,65.00
2022-12-18T13:20:50.758Z,63.30
2022-12-18T13:23:29.763Z,62.00
2022-12-18T13:26:24.787Z,61.40
2022-12-18T13:28:56.800Z,61.00
2022-12-18T13:31:40.412Z,68.30
2022-12-18T13:34:26.221Z,72.20
2022-12-18T13:36:58.059Z,71.40
2022-12-18T13:39:35.293Z,65.70
2022-12-18T13:42:07.304Z,64.30
2022-12-18T13:44:41.596Z,62.90
2022-12-18T13:47:34.622Z,62.30
2022-12-18T13:50:12.033Z,61.70
2022-12-18T13:52:41.724Z,61.20
2022-12-18T13:55:18.526Z,61.20
2022-12-18T13:57:47.286Z,67.20
2022-12-18T14:00:19.223Z,71.70
2022-12-18T14:02:48.325Z,73.50
2022-12-18T14:05:26.413Z,66.80
2022-12-18T14:07:56.765Z,64.10
2022-12-18T14:10:48.147Z,63.00
2022-12-18T14:13:30.959Z,62.00
2022-12-18T14:16:01.758Z,61.00
2022-12-18T14:19:01.944Z,60.90
2022-12-18T14:21:35.716Z,69.60
2022-12-18T14:24:22.601Z,73.70
2022-12-18T14:26:52.327Z,69.50
2022-12-18T14:29:23.025Z,64.10
2022-12-18T14:32:17.834Z,63.10
2022-12-18T14:34:51.205Z,61.00
2022-12-18T14:37:23.650Z,66.10
2022-12-18T14:40:15.163Z,70.00
2022-12-18T14:42:44.116Z,72.80
2022-12-18T14:45:42.282Z,69.10
2022-12-18T14:48:23.518Z,63.20
2022-12-18T14:51:08.017Z,61.30
2022-12-18T14:53:41.025Z,61.90
2022-12-18T14:56:24.085Z,68.80
2022-12-18T14:59:01.522Z,72.30
2022-12-18T15:01:31.833Z,74.50
2022-12-18T15:04:01.638Z,67.20
2022-12-18T15:06:39.045Z,63.10
2022-12-18T15:09:26.484Z,61.60
2022-12-18T15:12:00.543Z,61.30
2022-12-18T15:14:39.529Z,68.40
2022-12-18T15:17:21.180Z,71.50
2022-12-18T15:19:54.252Z,74.00
2022-12-18T15:22:31.362Z,67.80
2022-12-18T15:25:00.959Z,63.50
2022-12-18T15:27:37.674Z,61.50
2022-12-18T15:30:11.885Z,60.50
2022-12-18T15:32:41.634Z,66.80
2022-12-18T15:35:09.911Z,70.50
2022-12-18T15:37:41.034Z,72.90
2022-12-18T15:40:14.927Z,71.30
2022-12-18T15:42:47.048Z,64.00
2022-12-18T15:45:16.231Z,61.70
2022-12-18T15:47:46.240Z,60.50
2022-12-18T15:50:16.346Z,63.50
2022-12-18T15:52:47.320Z,68.90
2022-12-18T15:55:21.391Z,71.50
2022-12-18T15:57:49.685Z,73.50
2022-12-18T16:00:18.110Z,69.20
2022-12-18T16:02:46.812Z,63.50
2022-12-18T16:05:18.905Z,61.40
2022-12-18T16:07:47.711Z,60.30
2022-12-18T16:10:15.961Z,60.70
2022-12-18T16:12:44.659Z,68.30
2022-12-18T16:15:18.494Z,71.20
2022-12-18T16:17:50.980Z,73.10
2022-12-18T16:20:23.814Z,67.40
2022-12-18T16:22:52.299Z,62.60
2022-12-18T16:25:26.197Z,61.00
2022-12-18T16:27:55.832Z,59.50
2022-12-18T16:30:32.337Z,59.10
2022-12-18T16:33:07.598Z,67.00
2022-12-18T16:35:36.479Z,70.40
2022-12-18T16:38:05.303Z,72.50
2022-12-18T16:40:34.282Z,66.90
2022-12-18T16:43:02.736Z,62.00
2022-12-18T16:45:31.193Z,60.20
2022-12-18T16:47:59.576Z,59.30
2022-12-18T16:50:28.051Z,58.70
2022-12-18T16:52:56.312Z,66.30
2022-12-18T16:55:24.708Z,69.80
2022-12-18T16:57:53.533Z,71.90
2022-12-18T17:00:22.519Z,70.00
2022-12-18T17:02:51.270Z,62.90
2022-12-18T17:05:19.880Z,60.50
2022-12-18T17:07:48.220Z,59.10
2022-12-18T17:10:19.127Z,57.90
2022-12-18T17:12:47.528Z,65.00
2022-12-18T17:15:16.033Z,68.40
2022-12-18T17:17:44.945Z,70.60
2022-12-18T17:20:13.483Z,71.90
2022-12-18T17:22:41.766Z,63.60
2022-12-18T17:25:10.464Z,60.60
2022-12-18T17:27:39.080Z,59.20
2022-12-18T17:30:08.066Z,58.40
2022-12-18T17:32:36.349Z,62.50
2022-12-18T17:35:07.300Z,68.10
2022-12-18T17:37:36.704Z,71.80
2022-12-18T17:40:05.517Z,72.00
2022-12-18T17:42:33.966Z,63.60
2022-12-18T17:45:02.410Z,60.60
2022-12-18T17:47:30.578Z,59.20
2022-12-18T17:49:59.044Z,58.40
2022-12-18T17:52:27.208Z,65.80
2022-12-18T17:54:55.480Z,68.90
2022-12-18T17:57:23.896Z,71.00
2022-12-18T17:59:52.226Z,69.10
2022-12-18T18:02:21.731Z,62.00
2022-12-18T18:04:50.049Z,60.00
2022-12-18T18:07:18.442Z,58.70
2022-12-18T18:09:46.833Z,62.70
2022-12-18T18:12:15.340Z,67.30
2022-12-18T18:14:43.651Z,70.30
2022-12-18T18:17:12.566Z,71.70
2022-12-18T18:19:41.026Z,64.70
2022-12-18T18:22:11.134Z,60.80
2022-12-18T18:24:39.575Z,59.40
2022-12-18T18:27:07.882Z,58.30
2022-12-18T18:29:36.646Z,66.10
2022-12-18T18:32:05.444Z,68.90
2022-12-18T18:34:34.229Z,71.30
2022-12-18T18:37:03.155Z,72.20
2022-12-18T18:39:31.525Z,63.60
2022-12-18T18:42:01.067Z,60.40
2022-12-18T18:44:30.574Z,59.00
2022-12-18T18:46:59.739Z,59.80
2022-12-18T18:49:29.649Z,66.60
2022-12-18T18:51:58.585Z,69.70
2022-12-18T18:54:27.324Z,71.20
2022-12-18T18:59:43.848Z,61.90
2022-12-18T19:02:16.411Z,59.40
2022-12-18T19:04:47.001Z,58.30
2022-12-18T19:07:20.915Z,65.50
2022-12-18T19:10:04.135Z,68.90
2022-12-18T19:12:34.153Z,71.40
2022-12-18T19:15:02.686Z,72.30
2022-12-18T19:17:31.542Z,63.90
2022-12-18T19:20:00.305Z,60.60
2022-12-18T19:22:28.694Z,59.10
2022-12-18T19:24:57.192Z,63.00
2022-12-18T19:27:25.776Z,67.90
2022-12-18T19:29:54.175Z,70.40
2022-12-18T19:32:22.655Z,71.90
2022-12-18T19:34:53.545Z,64.00
2022-12-18T19:37:22.255Z,60.40
2022-12-18T19:39:50.599Z,59.10
2022-12-18T19:42:24.904Z,60.60
2022-12-18T19:44:54.783Z,66.60
2022-12-18T19:47:22.982Z,69.80
2022-12-18T19:49:51.306Z,71.50
2022-12-18T19:52:19.774Z,66.50
2022-12-18T19:54:48.363Z,61.70
2022-12-18T19:57:16.939Z,59.70
2022-12-18T19:59:45.390Z,58.70
2022-12-18T20:02:16.925Z,65.40
2022-12-18T20:04:45.578Z,68.90
2022-12-18T20:07:13.888Z,71.10
2022-12-18T20:09:42.346Z,72.50
2022-12-18T20:12:10.957Z,64.30
2022-12-18T20:14:39.186Z,61.00
2022-12-18T20:17:07.588Z,59.60
2022-12-18T20:19:36.692Z,58.30
2022-12-18T20:22:05.294Z,65.90
2022-12-18T20:24:33.866Z,69.00
2022-12-18T20:27:02.351Z,72.00
2022-12-18T20:29:30.629Z,73.30
2022-12-18T20:31:59.099Z,65.70
2022-12-18T20:34:27.607Z,62.10
2022-12-18T20:36:56.938Z,60.40
2022-12-18T20:39:25.821Z,59.20
2022-12-18T20:41:54.619Z,66.50
2022-12-18T20:44:24.124Z,69.70
2022-12-18T20:46:55.880Z,71.90
2022-12-18T20:49:26.280Z,72.60
2022-12-18T20:51:56.849Z,64.50
2022-12-18T20:54:27.727Z,61.40
2022-12-18T20:56:57.081Z,60.00
2022-12-18T20:59:26.078Z,59.50
2022-12-18T21:01:57.160Z,67.10
2022-12-18T21:04:26.092Z,70.10
2022-12-18T21:06:58.022Z,72.60
2022-12-18T21:09:30.373Z,68.60
2022-12-18T21:12:07.657Z,62.60
2022-12-18T21:14:37.241Z,60.90
2022-12-18T21:17:05.517Z,59.50
2022-12-18T21:19:33.927Z,66.40
2022-12-18T21:22:02.671Z,69.60
2022-12-18T21:24:32.764Z,71.70
2022-12-18T21:27:01.616Z,73.20
2022-12-18T21:29:30.004Z,66.60
2022-12-18T21:31:58.477Z,62.20
2022-12-18T21:34:29.378Z,60.90
2022-12-18T21:36:59.776Z,62.20
2022-12-18T21:39:29.241Z,67.90
2022-12-18T21:41:58.155Z,70.60
2022-12-18T21:44:26.504Z,72.50
2022-12-18T21:46:58.335Z,69.90
2022-12-18T21:49:32.511Z,63.50
2022-12-18T21:52:01.761Z,61.20
2022-12-18T21:54:30.602Z,60.00
2022-12-18T21:56:59.967Z,63.80
2022-12-18T21:59:39.647Z,68.40
2022-12-18T22:02:20.618Z,71.20
2022-12-18T22:04:49.536Z,73.10
2022-12-18T22:07:18.123Z,69.40
2022-12-18T22:09:46.719Z,63.40
2022-12-18T22:12:17.950Z,61.00
2022-12-18T22:14:46.275Z,59.90
2022-12-18T22:17:14.614Z,64.70
2022-12-18T22:19:44.099Z,69.00
2022-12-18T22:22:12.672Z,71.40
2022-12-18T22:24:41.166Z,73.20
2022-12-18T22:27:10.626Z,69.00
2022-12-18T22:29:39.212Z,63.20
2022-12-18T22:32:09.252Z,61.40
2022-12-18T22:34:39.669Z,60.30
2022-12-18T22:37:07.940Z,67.40
2022-12-18T22:39:36.165Z,70.40
2022-12-18T22:42:04.734Z,72.70
2022-12-18T22:44:33.045Z,70.90
2022-12-18T22:47:07.033Z,63.50
2022-12-18T22:49:36.367Z,61.50
2022-12-18T22:52:05.658Z,60.20
2022-12-18T22:54:33.964Z,65.70
2022-12-18T22:57:02.335Z,70.00
2022-12-18T22:59:31.751Z,72.20
2022-12-18T23:02:01.052Z,73.50
2022-12-18T23:04:36.059Z,67.90
2022-12-18T23:07:06.379Z,63.20
2022-12-18T23:09:35.353Z,61.40
2022-12-18T23:12:03.778Z,60.30
2022-12-18T23:14:32.162Z,66.40
2022-12-18T23:17:00.307Z,69.60
2022-12-18T23:19:28.874Z,72.10
2022-12-18T23:21:57.123Z,73.70
2022-12-18T23:24:26.975Z,67.60
2022-12-18T23:26:55.096Z,63.00
2022-12-18T23:29:23.339Z,61.40
2022-12-18T23:31:51.773Z,60.40
2022-12-18T23:34:20.155Z,67.70
2022-12-18T23:36:50.022Z,70.00
2022-12-18T23:39:28.662Z,72.00
2022-12-18T23:41:58.967Z,74.20
2022-12-18T23:44:27.932Z,65.90
2022-12-18T23:46:55.859Z,62.80
2022-12-18T23:49:24.393Z,61.40
2022-12-18T23:51:55.235Z,59.60
2022-12-18T23:54:33.445Z,65.60
2022-12-18T23:57:02.496Z,69.20
2022-12-18T23:59:30.436Z,72.00
